Nearby METAR Reports

 

KICL - Clarinda, Iowa, USA
Distance from station: N 49mi, 79km
Updated: Sat, 21-Sep-2019 6:55am CDT
Overcast
Overcast
 Wind from S
Wind: S 13 mph , 20 km/h, Gust: 18 mph , 30 km/h
Temperature: 73°F , 23°C
Dew Point: 72°F , 22°C
Humidity: 94%
Barometer: 29.91 inHg , 1012.9 hPa
Clouds: Overcast
Visibility: 10 miles , 16 km
Cloud details: Overcast 1600 ft
2019/09/21 11:55 KICL 211155Z AUTO 19011G16KT 10SM OVC016 23/22 A2991 RMK AO2
KDSM - Des Moines, Iowa, USA
Distance from station: NNE 122mi, 196km
Updated: Sat, 21-Sep-2019 6:54am CDT
Overcast
Overcast
 Wind from S
Wind: S 13 mph , 20 km/h
Temperature: 72°F , 22°C
Dew Point: 68°F , 20°C
Humidity: 88%
Barometer: 29.91 inHg , 1012.9 hPa
Clouds: Overcast
Visibility: 10 miles , 16 km
Cloud details: Overcast 1000 ft
2019/09/21 11:54 KDSM 211154Z 18011KT 10SM OVC010 22/20 A2991 RMK AO2 CIG 009V014 SLP119 T02220200 10233 20217 58003
KFNB - Falls City, Nebraska, USA
Distance from station: W 50mi, 80km
Updated: Sat, 21-Sep-2019 6:53am CDT
Partly cloudy
Partly cloudy
 Wind from S
Wind: S 13 mph , 20 km/h, Gust: 23 mph , 37 km/h
Temperature: 73°F , 23°C
Dew Point: 70°F , 21°C
Humidity: 89%
Barometer: 29.89 inHg , 1012.2 hPa
Clouds: Partly cloudy
Visibility: 10 miles , 16 km
Cloud details: Few Clouds 1500 ft
Partly cloudy 10000 ft
2019/09/21 11:53 KFNB 211153Z AUTO 17011G20KT 10SM FEW015 SCT100 23/21 A2989 RMK AO2 SLP113 70002 T02280206 10228 20222 56001
 
KMCI - Kansas City, Missouri, USA
Distance from station: S 65mi, 104km
Updated: Sat, 21-Sep-2019 6:53am CDT
Overcast
Overcast
 Wind from S
Wind: S 14 mph , 22 km/h
Temperature: 73°F , 23°C
Dew Point: 70°F , 21°C
Humidity: 89%
Barometer: 29.96 inHg , 1014.6 hPa
Clouds: Overcast
Visibility: 10 miles , 16 km
Cloud details: Overcast 1700 ft
2019/09/21 11:53 KMCI 211153Z 18012KT 10SM OVC017 23/21 A2996 RMK AO2 SLP135 70001 T02280211 10233 20217 55002
KOMA - Omaha, Nebraska, USA
Distance from station: NNW 105mi, 169km
Updated: Sat, 21-Sep-2019 6:52am CDT
Overcast
Overcast
 Wind from SSE
Wind: SSE 16 mph , 26 km/h
Temperature: 73°F , 23°C
Dew Point: 70°F , 21°C
Humidity: 89%
Barometer: 29.83 inHg , 1010.2 hPa
Clouds: Overcast
Visibility: 10 miles , 16 km
Cloud details: Mostly cloudy 1700 ft
Mostly cloudy 2200 ft
Overcast 2800 ft
2019/09/21 11:52 KOMA 211152Z 16014KT 10SM BKN017 BKN022 OVC028 23/21 A2983 RMK AO2 SLP092 60000 T02330211 10233 20228 56004
KRDK - Red Oak, Iowa, USA
Distance from station: N 70mi, 112km
Updated: Sat, 21-Sep-2019 6:55am CDT
Overcast
Overcast
 Wind from S
Wind: S 16 mph , 26 km/h, Gust: 24 mph , 39 km/h
Temperature: 73°F , 23°C
Dew Point: 70°F , 21°C
Humidity: 89%
Barometer: 29.88 inHg , 1011.9 hPa
Clouds: Overcast
Visibility: 10 miles , 16 km
Cloud details: Mostly cloudy 1800 ft
Overcast 2400 ft
2019/09/21 11:55 KRDK 211155Z AUTO 17014G21KT 10SM BKN018 OVC024 23/21 A2988 RMK AO2
 
KSTJ - Saint Joseph, Missouri, USA
Distance from station: SW 23mi, 37km
Updated: Sat, 21-Sep-2019 6:53am CDT
Light rain, Mist, Overcast
Light rain, Mist, Overcast
 Wind from S
Wind: S 9 mph , 15 km/h, Gust: 21 mph , 33 km/h
Temperature: 73°F , 23°C
Dew Point: 70°F , 21°C
Humidity: 89%
Barometer: 29.94 inHg , 1013.9 hPa
Summary: Light rain, Mist
Clouds: Overcast
Visibility: 6 miles , 10 km
Cloud details: Overcast 1800 ft
2019/09/21 11:53 KSTJ 211153Z AUTO 18008G18KT 6SM -RA BR OVC018 23/21 A2994 RMK AO2 TSE13 SLP130 P0008 60022 70023 T02280211 10233 20222 55002
KTOP - Topeka, Kansas, USA
Distance from station: SW 85mi, 137km
Updated: Sat, 21-Sep-2019 6:53am CDT
Overcast
Overcast
 Wind from S
Wind: S 12 mph , 19 km/h, Gust: 21 mph , 33 km/h
Temperature: 75°F , 24°C
Dew Point: 70°F , 21°C
Humidity: 83%
Barometer: 29.94 inHg , 1013.9 hPa
Clouds: Overcast
Visibility: 10 miles , 16 km
Cloud details: Partly cloudy 1700 ft
Mostly cloudy 2100 ft
Overcast 2900 ft
2019/09/21 11:53 KTOP 211153Z 19010G18KT 10SM SCT017 BKN021 OVC029 24/21 A2994 RMK AO2 SLP129 70002 T02390206 10239 20228 53004
KICT - Wichita, Kansas, USA
Distance from station: SW 215mi, 346km
Updated: Sat, 21-Sep-2019 6:53am CDT
Overcast
Overcast
 Wind from SSE
Wind: SSE 15 mph , 24 km/h
Temperature: 72°F , 22°C
Dew Point: 66°F , 19°C
Humidity: 83%
Barometer: 29.93 inHg , 1013.5 hPa
Clouds: Overcast
Visibility: 10 miles , 16 km
Cloud details: Few Clouds 2000 ft
Few Clouds 11000 ft
Overcast 18000 ft
2019/09/21 11:53 KICT 211153Z 16013KT 10SM FEW020 FEW110 OVC180 22/19 A2993 RMK AO2 SLP121 70003 T02170194 10233 20211 53004